sensor_id;sensor_type;location;lat;lon;timestamp;P1;durP1;ratioP1;P2;durP2;ratioP2
12437;SDS011;6283;51.330;12.374;2022-12-24T00:01:00;2.60;;;1.30;;
12437;SDS011;6283;51.330;12.374;2022-12-24T00:03:27;1.73;;;1.17;;
12437;SDS011;6283;51.330;12.374;2022-12-24T00:05:52;3.43;;;1.47;;
12437;SDS011;6283;51.330;12.374;2022-12-24T00:08:18;3.53;;;1.40;;
12437;SDS011;6283;51.330;12.374;2022-12-24T00:10:47;2.20;;;1.90;;
12437;SDS011;6283;51.330;12.374;2022-12-24T00:13:17;2.57;;;1.30;;
12437;SDS011;6283;51.330;12.374;2022-12-24T00:15:43;3.17;;;1.30;;
12437;SDS011;6283;51.330;12.374;2022-12-24T00:18:08;3.30;;;1.67;;
12437;SDS011;6283;51.330;12.374;2022-12-24T00:20:34;1.87;;;1.40;;
12437;SDS011;6283;51.330;12.374;2022-12-24T00:23:00;5.23;;;2.00;;
12437;SDS011;6283;51.330;12.374;2022-12-24T00:25:25;5.03;;;1.83;;
12437;SDS011;6283;51.330;12.374;2022-12-24T00:27:51;4.53;;;2.77;;
12437;SDS011;6283;51.330;12.374;2022-12-24T00:30:16;4.40;;;1.73;;
12437;SDS011;6283;51.330;12.374;2022-12-24T00:32:42;4.00;;;1.50;;
12437;SDS011;6283;51.330;12.374;2022-12-24T00:35:07;6.27;;;2.10;;
12437;SDS011;6283;51.330;12.374;2022-12-24T00:37:33;4.50;;;1.90;;
12437;SDS011;6283;51.330;12.374;2022-12-24T00:39:59;2.83;;;1.60;;
12437;SDS011;6283;51.330;12.374;2022-12-24T00:42:24;5.27;;;1.80;;
12437;SDS011;6283;51.330;12.374;2022-12-24T00:44:50;10.83;;;2.30;;
12437;SDS011;6283;51.330;12.374;2022-12-24T00:47:15;4.37;;;2.17;;
12437;SDS011;6283;51.330;12.374;2022-12-24T00:49:41;9.37;;;2.13;;
12437;SDS011;6283;51.330;12.374;2022-12-24T00:52:07;6.47;;;2.07;;
12437;SDS011;6283;51.330;12.374;2022-12-24T00:54:32;7.23;;;2.07;;
12437;SDS011;6283;51.330;12.374;2022-12-24T00:56:58;6.27;;;2.10;;
12437;SDS011;6283;51.330;12.374;2022-12-24T00:59:23;4.60;;;1.97;;
12437;SDS011;6283;51.330;12.374;2022-12-24T01:01:49;7.67;;;2.10;;
12437;SDS011;6283;51.330;12.374;2022-12-24T01:04:14;5.40;;;1.77;;
12437;SDS011;6283;51.330;12.374;2022-12-24T01:06:58;5.70;;;2.20;;
12437;SDS011;6283;51.330;12.374;2022-12-24T01:09:24;6.00;;;1.90;;
12437;SDS011;6283;51.330;12.374;2022-12-24T01:11:50;6.93;;;2.10;;
12437;SDS011;6283;51.330;12.374;2022-12-24T01:14:15;7.07;;;2.10;;
12437;SDS011;6283;51.330;12.374;2022-12-24T01:16:41;8.47;;;2.63;;
12437;SDS011;6283;51.330;12.374;2022-12-24T01:19:06;5.53;;;1.93;;
12437;SDS011;6283;51.330;12.374;2022-12-24T01:21:32;7.23;;;2.40;;
12437;SDS011;6283;51.330;12.374;2022-12-24T01:23:58;5.63;;;2.23;;
12437;SDS011;6283;51.330;12.374;2022-12-24T01:26:23;3.70;;;1.77;;
12437;SDS011;6283;51.330;12.374;2022-12-24T01:28:49;7.63;;;2.77;;
12437;SDS011;6283;51.330;12.374;2022-12-24T01:31:16;5.07;;;2.17;;
12437;SDS011;6283;51.330;12.374;2022-12-24T01:33:43;5.10;;;2.07;;
12437;SDS011;6283;51.330;12.374;2022-12-24T01:36:10;6.90;;;2.13;;
12437;SDS011;6283;51.330;12.374;2022-12-24T01:38:37;6.63;;;1.70;;
12437;SDS011;6283;51.330;12.374;2022-12-24T01:41:03;7.50;;;2.10;;
12437;SDS011;6283;51.330;12.374;2022-12-24T01:43:47;7.90;;;2.20;;
12437;SDS011;6283;51.330;12.374;2022-12-24T01:46:17;4.10;;;1.43;;
12437;SDS011;6283;51.330;12.374;2022-12-24T01:48:55;4.80;;;1.80;;
12437;SDS011;6283;51.330;12.374;2022-12-24T01:54:01;5.00;;;1.63;;
12437;SDS011;6283;51.330;12.374;2022-12-24T01:56:34;5.33;;;1.87;;
12437;SDS011;6283;51.330;12.374;2022-12-24T01:59:05;5.23;;;2.27;;
12437;SDS011;6283;51.330;12.374;2022-12-24T02:01:34;8.10;;;2.17;;
12437;SDS011;6283;51.330;12.374;2022-12-24T02:04:08;6.33;;;1.83;;
12437;SDS011;6283;51.330;12.374;2022-12-24T02:06:41;5.37;;;2.00;;
12437;SDS011;6283;51.330;12.374;2022-12-24T02:09:07;8.57;;;2.20;;
12437;SDS011;6283;51.330;12.374;2022-12-24T02:11:32;6.10;;;2.00;;
12437;SDS011;6283;51.330;12.374;2022-12-24T02:14:00;6.40;;;2.17;;
12437;SDS011;6283;51.330;12.374;2022-12-24T02:22:03;7.90;;;2.40;;
12437;SDS011;6283;51.330;12.374;2022-12-24T02:30:33;5.73;;;1.73;;
12437;SDS011;6283;51.330;12.374;2022-12-24T02:33:11;7.07;;;1.80;;
12437;SDS011;6283;51.330;12.374;2022-12-24T02:36:04;6.40;;;2.13;;
12437;SDS011;6283;51.330;12.374;2022-12-24T02:38:38;7.30;;;1.70;;
12437;SDS011;6283;51.330;12.374;2022-12-24T02:41:17;6.17;;;2.20;;
12437;SDS011;6283;51.330;12.374;2022-12-24T02:43:47;3.47;;;1.63;;
12437;SDS011;6283;51.330;12.374;2022-12-24T02:46:17;2.80;;;1.13;;
12437;SDS011;6283;51.330;12.374;2022-12-24T02:48:46;6.43;;;1.90;;
12437;SDS011;6283;51.330;12.374;2022-12-24T02:51:13;4.43;;;1.50;;
12437;SDS011;6283;51.330;12.374;2022-12-24T02:53:39;4.30;;;1.67;;
12437;SDS011;6283;51.330;12.374;2022-12-24T03:02:12;4.50;;;1.60;;
12437;SDS011;6283;51.330;12.374;2022-12-24T03:07:37;5.80;;;1.57;;
12437;SDS011;6283;51.330;12.374;2022-12-24T03:12:45;3.70;;;2.03;;
12437;SDS011;6283;51.330;12.374;2022-12-24T03:15:17;4.17;;;1.50;;
12437;SDS011;6283;51.330;12.374;2022-12-24T03:17:46;6.50;;;1.67;;
12437;SDS011;6283;51.330;12.374;2022-12-24T03:20:17;5.40;;;1.50;;
12437;SDS011;6283;51.330;12.374;2022-12-24T03:23:03;6.13;;;1.70;;
12437;SDS011;6283;51.330;12.374;2022-12-24T03:25:29;4.00;;;1.40;;
12437;SDS011;6283;51.330;12.374;2022-12-24T03:27:57;3.60;;;1.40;;
12437;SDS011;6283;51.330;12.374;2022-12-24T03:30:25;4.17;;;1.77;;
12437;SDS011;6283;51.330;12.374;2022-12-24T03:32:51;5.93;;;2.07;;
12437;SDS011;6283;51.330;12.374;2022-12-24T03:35:16;4.07;;;1.73;;
12437;SDS011;6283;51.330;12.374;2022-12-24T03:37:42;3.17;;;1.20;;
12437;SDS011;6283;51.330;12.374;2022-12-24T03:40:08;3.10;;;1.40;;
12437;SDS011;6283;51.330;12.374;2022-12-24T03:42:34;5.23;;;1.43;;
12437;SDS011;6283;51.330;12.374;2022-12-24T03:45:00;3.53;;;1.00;;
12437;SDS011;6283;51.330;12.374;2022-12-24T03:47:25;4.97;;;1.20;;
12437;SDS011;6283;51.330;12.374;2022-12-24T03:49:51;4.43;;;1.50;;
12437;SDS011;6283;51.330;12.374;2022-12-24T03:52:17;3.97;;;1.60;;
12437;SDS011;6283;51.330;12.374;2022-12-24T03:54:42;2.40;;;1.23;;
12437;SDS011;6283;51.330;12.374;2022-12-24T03:57:08;7.10;;;1.30;;
12437;SDS011;6283;51.330;12.374;2022-12-24T03:59:33;5.20;;;1.30;;
12437;SDS011;6283;51.330;12.374;2022-12-24T04:01:59;3.50;;;1.30;;
12437;SDS011;6283;51.330;12.374;2022-12-24T04:04:25;2.97;;;1.33;;
12437;SDS011;6283;51.330;12.374;2022-12-24T04:06:50;6.80;;;1.60;;
12437;SDS011;6283;51.330;12.374;2022-12-24T04:09:16;4.37;;;1.40;;
12437;SDS011;6283;51.330;12.374;2022-12-24T04:11:41;6.57;;;1.50;;
12437;SDS011;6283;51.330;12.374;2022-12-24T04:14:07;4.13;;;1.33;;
12437;SDS011;6283;51.330;12.374;2022-12-24T04:16:33;6.80;;;2.10;;
12437;SDS011;6283;51.330;12.374;2022-12-24T04:18:58;4.77;;;1.60;;
12437;SDS011;6283;51.330;12.374;2022-12-24T04:21:24;3.40;;;1.57;;
12437;SDS011;6283;51.330;12.374;2022-12-24T04:23:49;4.27;;;1.60;;
12437;SDS011;6283;51.330;12.374;2022-12-24T04:26:15;2.93;;;1.73;;
12437;SDS011;6283;51.330;12.374;2022-12-24T04:28:41;6.07;;;2.17;;
12437;SDS011;6283;51.330;12.374;2022-12-24T04:31:09;10.57;;;1.97;;
12437;SDS011;6283;51.330;12.374;2022-12-24T04:33:36;7.73;;;1.63;;
12437;SDS011;6283;51.330;12.374;2022-12-24T04:36:02;5.87;;;1.70;;
12437;SDS011;6283;51.330;12.374;2022-12-24T04:38:29;6.67;;;1.70;;
12437;SDS011;6283;51.330;12.374;2022-12-24T04:43:25;3.43;;;1.60;;
12437;SDS011;6283;51.330;12.374;2022-12-24T04:45:51;9.23;;;1.83;;
12437;SDS011;6283;51.330;12.374;2022-12-24T04:48:16;8.50;;;2.33;;
12437;SDS011;6283;51.330;12.374;2022-12-24T04:50:42;3.17;;;1.40;;
12437;SDS011;6283;51.330;12.374;2022-12-24T04:53:07;3.20;;;1.33;;
12437;SDS011;6283;51.330;12.374;2022-12-24T04:55:33;5.80;;;1.53;;
12437;SDS011;6283;51.330;12.374;2022-12-24T04:57:59;3.03;;;1.50;;
12437;SDS011;6283;51.330;12.374;2022-12-24T05:00:24;7.27;;;1.73;;
12437;SDS011;6283;51.330;12.374;2022-12-24T05:02:50;5.03;;;2.10;;
12437;SDS011;6283;51.330;12.374;2022-12-24T05:05:16;5.07;;;1.60;;
12437;SDS011;6283;51.330;12.374;2022-12-24T05:07:41;5.63;;;1.60;;
12437;SDS011;6283;51.330;12.374;2022-12-24T05:10:07;6.40;;;1.87;;
12437;SDS011;6283;51.330;12.374;2022-12-24T05:12:34;4.33;;;1.93;;
12437;SDS011;6283;51.330;12.374;2022-12-24T05:15:00;8.70;;;2.10;;
12437;SDS011;6283;51.330;12.374;2022-12-24T05:17:26;5.27;;;1.53;;
12437;SDS011;6283;51.330;12.374;2022-12-24T05:19:51;6.87;;;1.70;;
12437;SDS011;6283;51.330;12.374;2022-12-24T05:22:17;6.40;;;1.80;;
12437;SDS011;6283;51.330;12.374;2022-12-24T05:25:18;7.83;;;1.53;;
12437;SDS011;6283;51.330;12.374;2022-12-24T05:28:02;6.60;;;1.60;;
12437;SDS011;6283;51.330;12.374;2022-12-24T05:30:28;7.87;;;1.50;;
12437;SDS011;6283;51.330;12.374;2022-12-24T05:32:54;5.03;;;1.50;;
12437;SDS011;6283;51.330;12.374;2022-12-24T05:35:19;5.50;;;1.70;;
12437;SDS011;6283;51.330;12.374;2022-12-24T05:37:45;7.20;;;2.40;;
12437;SDS011;6283;51.330;12.374;2022-12-24T05:40:10;6.90;;;2.33;;
12437;SDS011;6283;51.330;12.374;2022-12-24T05:42:36;6.73;;;1.60;;
12437;SDS011;6283;51.330;12.374;2022-12-24T05:45:02;11.30;;;1.80;;
12437;SDS011;6283;51.330;12.374;2022-12-24T05:47:28;5.10;;;1.70;;
12437;SDS011;6283;51.330;12.374;2022-12-24T05:49:54;6.57;;;1.50;;
12437;SDS011;6283;51.330;12.374;2022-12-24T05:52:19;8.30;;;1.77;;
12437;SDS011;6283;51.330;12.374;2022-12-24T05:54:45;8.13;;;1.73;;
12437;SDS011;6283;51.330;12.374;2022-12-24T05:57:10;5.60;;;1.37;;
12437;SDS011;6283;51.330;12.374;2022-12-24T05:59:37;2.43;;;1.67;;
12437;SDS011;6283;51.330;12.374;2022-12-24T06:02:02;5.87;;;1.53;;
12437;SDS011;6283;51.330;12.374;2022-12-24T06:04:28;6.07;;;1.83;;
12437;SDS011;6283;51.330;12.374;2022-12-24T06:06:53;7.63;;;1.67;;
12437;SDS011;6283;51.330;12.374;2022-12-24T06:09:19;6.23;;;1.97;;
12437;SDS011;6283;51.330;12.374;2022-12-24T06:11:45;5.87;;;1.70;;
12437;SDS011;6283;51.330;12.374;2022-12-24T06:14:10;1.63;;;1.20;;
12437;SDS011;6283;51.330;12.374;2022-12-24T06:16:36;4.77;;;2.00;;
12437;SDS011;6283;51.330;12.374;2022-12-24T06:19:01;6.63;;;1.80;;
12437;SDS011;6283;51.330;12.374;2022-12-24T06:21:27;3.40;;;1.90;;
12437;SDS011;6283;51.330;12.374;2022-12-24T06:23:53;4.87;;;1.67;;
12437;SDS011;6283;51.330;12.374;2022-12-24T06:26:19;5.50;;;1.73;;
12437;SDS011;6283;51.330;12.374;2022-12-24T06:28:46;7.20;;;1.80;;
12437;SDS011;6283;51.330;12.374;2022-12-24T06:31:14;7.37;;;1.70;;
12437;SDS011;6283;51.330;12.374;2022-12-24T06:33:41;6.10;;;2.13;;
12437;SDS011;6283;51.330;12.374;2022-12-24T06:36:07;4.93;;;1.57;;
12437;SDS011;6283;51.330;12.374;2022-12-24T06:38:37;5.50;;;1.70;;
12437;SDS011;6283;51.330;12.374;2022-12-24T06:41:06;4.87;;;1.47;;
12437;SDS011;6283;51.330;12.374;2022-12-24T06:43:32;3.33;;;1.90;;
12437;SDS011;6283;51.330;12.374;2022-12-24T06:45:58;6.43;;;1.60;;
12437;SDS011;6283;51.330;12.374;2022-12-24T06:48:25;5.63;;;2.03;;
12437;SDS011;6283;51.330;12.374;2022-12-24T06:50:50;10.93;;;2.27;;
12437;SDS011;6283;51.330;12.374;2022-12-24T06:53:16;6.33;;;1.67;;
12437;SDS011;6283;51.330;12.374;2022-12-24T06:55:42;5.87;;;1.97;;
12437;SDS011;6283;51.330;12.374;2022-12-24T06:58:07;5.33;;;1.70;;
12437;SDS011;6283;51.330;12.374;2022-12-24T07:00:33;6.53;;;2.00;;
12437;SDS011;6283;51.330;12.374;2022-12-24T07:02:59;3.97;;;1.70;;
12437;SDS011;6283;51.330;12.374;2022-12-24T07:05:24;5.20;;;2.30;;
12437;SDS011;6283;51.330;12.374;2022-12-24T07:07:50;3.23;;;1.43;;
12437;SDS011;6283;51.330;12.374;2022-12-24T07:10:17;7.03;;;1.60;;
12437;SDS011;6283;51.330;12.374;2022-12-24T07:12:43;5.00;;;1.60;;
12437;SDS011;6283;51.330;12.374;2022-12-24T07:15:10;7.10;;;1.53;;
12437;SDS011;6283;51.330;12.374;2022-12-24T07:17:36;4.67;;;1.40;;
12437;SDS011;6283;51.330;12.374;2022-12-24T07:20:03;5.80;;;1.60;;
12437;SDS011;6283;51.330;12.374;2022-12-24T07:22:29;3.53;;;1.57;;
12437;SDS011;6283;51.330;12.374;2022-12-24T07:24:55;4.80;;;1.80;;
12437;SDS011;6283;51.330;12.374;2022-12-24T07:27:21;7.13;;;1.77;;
12437;SDS011;6283;51.330;12.374;2022-12-24T07:29:46;6.47;;;1.40;;
12437;SDS011;6283;51.330;12.374;2022-12-24T07:32:12;5.10;;;1.40;;
12437;SDS011;6283;51.330;12.374;2022-12-24T07:34:38;6.50;;;1.70;;
12437;SDS011;6283;51.330;12.374;2022-12-24T07:37:03;6.23;;;1.60;;
12437;SDS011;6283;51.330;12.374;2022-12-24T07:39:30;5.80;;;1.80;;
12437;SDS011;6283;51.330;12.374;2022-12-24T07:41:55;6.90;;;1.50;;
12437;SDS011;6283;51.330;12.374;2022-12-24T07:44:21;5.40;;;1.50;;
12437;SDS011;6283;51.330;12.374;2022-12-24T07:46:47;6.70;;;1.33;;
12437;SDS011;6283;51.330;12.374;2022-12-24T07:49:12;7.70;;;1.73;;
12437;SDS011;6283;51.330;12.374;2022-12-24T07:51:38;5.60;;;1.63;;
12437;SDS011;6283;51.330;12.374;2022-12-24T07:54:03;5.30;;;1.50;;
12437;SDS011;6283;51.330;12.374;2022-12-24T07:56:29;7.03;;;1.93;;
12437;SDS011;6283;51.330;12.374;2022-12-24T07:58:56;5.37;;;1.63;;
12437;SDS011;6283;51.330;12.374;2022-12-24T08:01:21;7.77;;;1.70;;
12437;SDS011;6283;51.330;12.374;2022-12-24T08:03:47;3.83;;;1.73;;
12437;SDS011;6283;51.330;12.374;2022-12-24T08:06:15;6.53;;;2.27;;
12437;SDS011;6283;51.330;12.374;2022-12-24T08:08:41;6.97;;;1.63;;
12437;SDS011;6283;51.330;12.374;2022-12-24T08:11:06;7.43;;;1.70;;
12437;SDS011;6283;51.330;12.374;2022-12-24T08:13:32;9.50;;;1.57;;
12437;SDS011;6283;51.330;12.374;2022-12-24T08:15:58;8.23;;;1.67;;
12437;SDS011;6283;51.330;12.374;2022-12-24T08:18:24;7.07;;;1.87;;
12437;SDS011;6283;51.330;12.374;2022-12-24T08:20:50;8.23;;;1.87;;
12437;SDS011;6283;51.330;12.374;2022-12-24T08:23:16;5.50;;;1.87;;
12437;SDS011;6283;51.330;12.374;2022-12-24T08:25:44;8.57;;;1.90;;
12437;SDS011;6283;51.330;12.374;2022-12-24T08:28:12;6.70;;;2.00;;
12437;SDS011;6283;51.330;12.374;2022-12-24T08:30:39;7.00;;;1.60;;
12437;SDS011;6283;51.330;12.374;2022-12-24T08:33:05;8.80;;;2.00;;
12437;SDS011;6283;51.330;12.374;2022-12-24T08:35:31;6.57;;;2.17;;
12437;SDS011;6283;51.330;12.374;2022-12-24T08:37:56;4.53;;;1.73;;
12437;SDS011;6283;51.330;12.374;2022-12-24T08:40:22;7.60;;;1.97;;
12437;SDS011;6283;51.330;12.374;2022-12-24T08:42:48;4.33;;;1.60;;
12437;SDS011;6283;51.330;12.374;2022-12-24T08:45:13;7.60;;;1.90;;
12437;SDS011;6283;51.330;12.374;2022-12-24T08:47:39;8.07;;;2.07;;
12437;SDS011;6283;51.330;12.374;2022-12-24T08:50:06;7.03;;;2.00;;
12437;SDS011;6283;51.330;12.374;2022-12-24T08:52:32;10.97;;;2.43;;
12437;SDS011;6283;51.330;12.374;2022-12-24T08:54:58;7.27;;;1.90;;
12437;SDS011;6283;51.330;12.374;2022-12-24T08:57:24;7.83;;;1.93;;
12437;SDS011;6283;51.330;12.374;2022-12-24T08:59:49;6.47;;;1.77;;
12437;SDS011;6283;51.330;12.374;2022-12-24T09:02:15;7.93;;;2.77;;
12437;SDS011;6283;51.330;12.374;2022-12-24T09:04:41;13.10;;;2.47;;
12437;SDS011;6283;51.330;12.374;2022-12-24T09:07:07;8.77;;;1.90;;
12437;SDS011;6283;51.330;12.374;2022-12-24T09:09:33;5.90;;;2.13;;
12437;SDS011;6283;51.330;12.374;2022-12-24T09:11:59;4.23;;;1.73;;
12437;SDS011;6283;51.330;12.374;2022-12-24T09:14:25;11.73;;;2.50;;
12437;SDS011;6283;51.330;12.374;2022-12-24T09:16:51;8.70;;;2.13;;
12437;SDS011;6283;51.330;12.374;2022-12-24T09:19:16;5.97;;;1.67;;
12437;SDS011;6283;51.330;12.374;2022-12-24T09:21:42;5.60;;;2.00;;
12437;SDS011;6283;51.330;12.374;2022-12-24T09:24:07;10.77;;;2.87;;
12437;SDS011;6283;51.330;12.374;2022-12-24T09:26:33;8.93;;;2.30;;
12437;SDS011;6283;51.330;12.374;2022-12-24T09:29:00;9.00;;;2.03;;
12437;SDS011;6283;51.330;12.374;2022-12-24T09:31:26;8.13;;;3.17;;
12437;SDS011;6283;51.330;12.374;2022-12-24T09:33:52;6.13;;;1.87;;
12437;SDS011;6283;51.330;12.374;2022-12-24T09:36:19;7.17;;;1.83;;
12437;SDS011;6283;51.330;12.374;2022-12-24T09:38:45;7.63;;;2.30;;
12437;SDS011;6283;51.330;12.374;2022-12-24T09:44:00;8.20;;;2.40;;
12437;SDS011;6283;51.330;12.374;2022-12-24T09:46:33;5.57;;;1.90;;
12437;SDS011;6283;51.330;12.374;2022-12-24T09:49:05;6.90;;;1.50;;
12437;SDS011;6283;51.330;12.374;2022-12-24T09:51:42;6.13;;;1.80;;
12437;SDS011;6283;51.330;12.374;2022-12-24T09:54:17;7.87;;;1.97;;
12437;SDS011;6283;51.330;12.374;2022-12-24T09:56:49;7.77;;;1.70;;
12437;SDS011;6283;51.330;12.374;2022-12-24T09:59:23;8.57;;;2.10;;
12437;SDS011;6283;51.330;12.374;2022-12-24T10:01:53;4.80;;;1.80;;
12437;SDS011;6283;51.330;12.374;2022-12-24T10:04:20;6.53;;;1.70;;
12437;SDS011;6283;51.330;12.374;2022-12-24T10:12:06;8.50;;;2.07;;
12437;SDS011;6283;51.330;12.374;2022-12-24T10:14:43;4.77;;;1.53;;
12437;SDS011;6283;51.330;12.374;2022-12-24T10:25:21;7.33;;;1.63;;
12437;SDS011;6283;51.330;12.374;2022-12-24T10:27:51;7.27;;;1.70;;
12437;SDS011;6283;51.330;12.374;2022-12-24T10:30:20;4.90;;;1.60;;
12437;SDS011;6283;51.330;12.374;2022-12-24T10:32:47;4.17;;;1.37;;
12437;SDS011;6283;51.330;12.374;2022-12-24T10:37:47;5.20;;;1.53;;
12437;SDS011;6283;51.330;12.374;2022-12-24T10:42:59;2.63;;;1.53;;
12437;SDS011;6283;51.330;12.374;2022-12-24T10:45:26;6.53;;;1.50;;
12437;SDS011;6283;51.330;12.374;2022-12-24T10:48:00;3.20;;;1.17;;
12437;SDS011;6283;51.330;12.374;2022-12-24T10:50:31;3.00;;;1.40;;
12437;SDS011;6283;51.330;12.374;2022-12-24T10:53:04;4.50;;;1.47;;
12437;SDS011;6283;51.330;12.374;2022-12-24T10:55:38;4.33;;;1.40;;
12437;SDS011;6283;51.330;12.374;2022-12-24T10:58:04;4.27;;;1.07;;
12437;SDS011;6283;51.330;12.374;2022-12-24T11:00:37;5.63;;;1.40;;
12437;SDS011;6283;51.330;12.374;2022-12-24T11:03:47;5.10;;;1.00;;
12437;SDS011;6283;51.330;12.374;2022-12-24T11:06:03;6.27;;;1.83;;
12437;SDS011;6283;51.330;12.374;2022-12-24T11:08:38;5.30;;;1.20;;
12437;SDS011;6283;51.330;12.374;2022-12-24T11:11:18;3.83;;;1.33;;
12437;SDS011;6283;51.330;12.374;2022-12-24T11:18:47;2.93;;;1.23;;
12437;SDS011;6283;51.330;12.374;2022-12-24T11:26:36;2.57;;;1.00;;
12437;SDS011;6283;51.330;12.374;2022-12-24T11:31:37;2.93;;;1.93;;
12437;SDS011;6283;51.330;12.374;2022-12-24T11:36:49;1.40;;;0.90;;
12437;SDS011;6283;51.330;12.374;2022-12-24T11:39:18;6.13;;;1.40;;
12437;SDS011;6283;51.330;12.374;2022-12-24T11:41:45;3.37;;;1.40;;
12437;SDS011;6283;51.330;12.374;2022-12-24T11:44:11;2.80;;;1.33;;
12437;SDS011;6283;51.330;12.374;2022-12-24T11:52:24;2.77;;;1.73;;
12437;SDS011;6283;51.330;12.374;2022-12-24T11:57:27;3.93;;;1.40;;
12437;SDS011;6283;51.330;12.374;2022-12-24T12:00:01;3.13;;;1.43;;
12437;SDS011;6283;51.330;12.374;2022-12-24T12:02:30;3.33;;;1.27;;
12437;SDS011;6283;51.330;12.374;2022-12-24T12:05:02;2.97;;;1.30;;
12437;SDS011;6283;51.330;12.374;2022-12-24T12:07:34;3.10;;;1.50;;
12437;SDS011;6283;51.330;12.374;2022-12-24T12:12:35;2.77;;;1.57;;
12437;SDS011;6283;51.330;12.374;2022-12-24T12:15:13;1.93;;;1.00;;
12437;SDS011;6283;51.330;12.374;2022-12-24T12:17:54;5.10;;;1.60;;
12437;SDS011;6283;51.330;12.374;2022-12-24T12:20:32;5.83;;;1.70;;
12437;SDS011;6283;51.330;12.374;2022-12-24T12:23:14;3.73;;;1.40;;
12437;SDS011;6283;51.330;12.374;2022-12-24T12:28:35;3.10;;;1.30;;
12437;SDS011;6283;51.330;12.374;2022-12-24T12:33:36;4.13;;;1.80;;
12437;SDS011;6283;51.330;12.374;2022-12-24T12:36:06;4.03;;;1.30;;
12437;SDS011;6283;51.330;12.374;2022-12-24T12:38:34;5.80;;;1.47;;
12437;SDS011;6283;51.330;12.374;2022-12-24T12:49:36;7.43;;;1.50;;
12437;SDS011;6283;51.330;12.374;2022-12-24T12:57:25;7.23;;;2.57;;
12437;SDS011;6283;51.330;12.374;2022-12-24T12:59:56;2.83;;;1.70;;
12437;SDS011;6283;51.330;12.374;2022-12-24T13:13:09;3.80;;;1.53;;
12437;SDS011;6283;51.330;12.374;2022-12-24T13:21:19;4.30;;;1.60;;
12437;SDS011;6283;51.330;12.374;2022-12-24T13:23:47;5.10;;;2.27;;
12437;SDS011;6283;51.330;12.374;2022-12-24T13:26:13;6.70;;;1.77;;
12437;SDS011;6283;51.330;12.374;2022-12-24T13:28:39;3.37;;;1.87;;
12437;SDS011;6283;51.330;12.374;2022-12-24T13:36:10;5.03;;;1.83;;
12437;SDS011;6283;51.330;12.374;2022-12-24T13:49:43;3.13;;;1.80;;
12437;SDS011;6283;51.330;12.374;2022-12-24T13:57:31;6.93;;;1.90;;
12437;SDS011;6283;51.330;12.374;2022-12-24T14:02:43;4.43;;;2.30;;
12437;SDS011;6283;51.330;12.374;2022-12-24T14:06:05;3.83;;;2.20;;
12437;SDS011;6283;51.330;12.374;2022-12-24T14:08:11;6.70;;;2.03;;
12437;SDS011;6283;51.330;12.374;2022-12-24T14:19:00;6.13;;;2.10;;
12437;SDS011;6283;51.330;12.374;2022-12-24T14:21:32;2.97;;;1.63;;
12437;SDS011;6283;51.330;12.374;2022-12-24T14:24:01;6.10;;;2.33;;
12437;SDS011;6283;51.330;12.374;2022-12-24T14:26:35;5.60;;;1.90;;
12437;SDS011;6283;51.330;12.374;2022-12-24T14:31:56;7.63;;;2.43;;
12437;SDS011;6283;51.330;12.374;2022-12-24T14:34:23;4.57;;;1.83;;
12437;SDS011;6283;51.330;12.374;2022-12-24T14:36:50;9.97;;;2.27;;
12437;SDS011;6283;51.330;12.374;2022-12-24T14:41:52;6.60;;;1.83;;
12437;SDS011;6283;51.330;12.374;2022-12-24T14:44:35;7.77;;;2.13;;
12437;SDS011;6283;51.330;12.374;2022-12-24T14:47:19;6.43;;;2.13;;
12437;SDS011;6283;51.330;12.374;2022-12-24T14:55:40;7.63;;;1.87;;
12437;SDS011;6283;51.330;12.374;2022-12-24T15:01:17;7.00;;;2.00;;
12437;SDS011;6283;51.330;12.374;2022-12-24T15:06:25;6.17;;;2.53;;
12437;SDS011;6283;51.330;12.374;2022-12-24T15:08:52;6.93;;;2.37;;
12437;SDS011;6283;51.330;12.374;2022-12-24T15:11:19;7.67;;;2.57;;
12437;SDS011;6283;51.330;12.374;2022-12-24T15:13:48;7.83;;;2.50;;
12437;SDS011;6283;51.330;12.374;2022-12-24T15:18:56;5.80;;;2.10;;
12437;SDS011;6283;51.330;12.374;2022-12-24T15:24:01;8.37;;;2.30;;
12437;SDS011;6283;51.330;12.374;2022-12-24T15:26:31;6.90;;;2.37;;
12437;SDS011;6283;51.330;12.374;2022-12-24T15:29:01;4.57;;;2.60;;
12437;SDS011;6283;51.330;12.374;2022-12-24T15:31:52;6.37;;;2.10;;
12437;SDS011;6283;51.330;12.374;2022-12-24T15:34:28;5.03;;;2.33;;
12437;SDS011;6283;51.330;12.374;2022-12-24T15:37:05;9.33;;;2.50;;
12437;SDS011;6283;51.330;12.374;2022-12-24T15:39:59;6.57;;;2.50;;
12437;SDS011;6283;51.330;12.374;2022-12-24T15:42:44;6.73;;;2.40;;
12437;SDS011;6283;51.330;12.374;2022-12-24T15:45:23;7.83;;;2.50;;
12437;SDS011;6283;51.330;12.374;2022-12-24T15:47:55;10.13;;;2.83;;
12437;SDS011;6283;51.330;12.374;2022-12-24T15:52:56;6.60;;;2.70;;
12437;SDS011;6283;51.330;12.374;2022-12-24T15:55:39;7.40;;;2.57;;
12437;SDS011;6283;51.330;12.374;2022-12-24T16:03:37;6.10;;;2.20;;
12437;SDS011;6283;51.330;12.374;2022-12-24T16:06:19;7.23;;;2.97;;
12437;SDS011;6283;51.330;12.374;2022-12-24T16:08:46;6.70;;;2.83;;
12437;SDS011;6283;51.330;12.374;2022-12-24T16:11:16;6.80;;;2.80;;
12437;SDS011;6283;51.330;12.374;2022-12-24T16:16:15;8.60;;;2.30;;
12437;SDS011;6283;51.330;12.374;2022-12-24T16:21:09;7.90;;;2.47;;
12437;SDS011;6283;51.330;12.374;2022-12-24T16:23:54;7.13;;;2.83;;
12437;SDS011;6283;51.330;12.374;2022-12-24T16:26:22;9.20;;;3.67;;
12437;SDS011;6283;51.330;12.374;2022-12-24T16:28:48;6.40;;;2.20;;
12437;SDS011;6283;51.330;12.374;2022-12-24T16:31:17;7.07;;;2.30;;
12437;SDS011;6283;51.330;12.374;2022-12-24T16:33:52;7.63;;;2.33;;
12437;SDS011;6283;51.330;12.374;2022-12-24T16:36:19;9.37;;;2.90;;
12437;SDS011;6283;51.330;12.374;2022-12-24T16:38:45;8.90;;;2.93;;
12437;SDS011;6283;51.330;12.374;2022-12-24T16:41:29;6.77;;;2.90;;
12437;SDS011;6283;51.330;12.374;2022-12-24T16:44:14;9.23;;;3.10;;
12437;SDS011;6283;51.330;12.374;2022-12-24T16:46:40;10.47;;;2.87;;
12437;SDS011;6283;51.330;12.374;2022-12-24T16:49:08;10.37;;;2.80;;
12437;SDS011;6283;51.330;12.374;2022-12-24T16:51:39;7.93;;;3.87;;
12437;SDS011;6283;51.330;12.374;2022-12-24T16:54:05;6.80;;;3.03;;
12437;SDS011;6283;51.330;12.374;2022-12-24T16:56:32;7.87;;;2.80;;
12437;SDS011;6283;51.330;12.374;2022-12-24T16:58:57;11.33;;;3.43;;
12437;SDS011;6283;51.330;12.374;2022-12-24T17:01:23;5.97;;;2.47;;
12437;SDS011;6283;51.330;12.374;2022-12-24T17:03:48;7.87;;;2.93;;
12437;SDS011;6283;51.330;12.374;2022-12-24T17:06:14;6.53;;;2.77;;
12437;SDS011;6283;51.330;12.374;2022-12-24T17:08:39;9.33;;;2.90;;
12437;SDS011;6283;51.330;12.374;2022-12-24T17:11:06;7.73;;;2.90;;
12437;SDS011;6283;51.330;12.374;2022-12-24T17:13:32;5.63;;;3.10;;
12437;SDS011;6283;51.330;12.374;2022-12-24T17:15:59;5.20;;;2.40;;
12437;SDS011;6283;51.330;12.374;2022-12-24T17:18:26;4.87;;;2.30;;
12437;SDS011;6283;51.330;12.374;2022-12-24T17:20:58;6.13;;;2.50;;
12437;SDS011;6283;51.330;12.374;2022-12-24T17:23:24;5.37;;;2.63;;
12437;SDS011;6283;51.330;12.374;2022-12-24T17:25:50;4.70;;;2.33;;
12437;SDS011;6283;51.330;12.374;2022-12-24T17:28:16;7.47;;;2.57;;
12437;SDS011;6283;51.330;12.374;2022-12-24T17:30:41;11.13;;;2.90;;
12437;SDS011;6283;51.330;12.374;2022-12-24T17:33:07;4.73;;;2.43;;
12437;SDS011;6283;51.330;12.374;2022-12-24T17:35:32;9.63;;;3.37;;
12437;SDS011;6283;51.330;12.374;2022-12-24T17:37:58;8.87;;;3.17;;
12437;SDS011;6283;51.330;12.374;2022-12-24T17:40:27;7.33;;;2.70;;
12437;SDS011;6283;51.330;12.374;2022-12-24T17:42:54;8.17;;;2.73;;
12437;SDS011;6283;51.330;12.374;2022-12-24T17:45:19;9.20;;;3.30;;
12437;SDS011;6283;51.330;12.374;2022-12-24T17:47:45;9.90;;;3.13;;
12437;SDS011;6283;51.330;12.374;2022-12-24T17:50:10;8.43;;;3.07;;
12437;SDS011;6283;51.330;12.374;2022-12-24T17:52:36;6.70;;;3.00;;
12437;SDS011;6283;51.330;12.374;2022-12-24T17:55:02;7.80;;;3.27;;